Time;durP1;ratioP1;P1;durP2;ratioP2;P2;SDS_P1;SDS_P2;PMS_P1;PMS_P2;Temp;Humidity;BMP_temperature;BMP_pressure;BME280_temperature;BME280_humidity;BME280_pressure;Samples;Min_cycle;Max_cycle;Signal;HPM_P1;HPM_P2
2021/06/07 00:01:50;;;;;;;0.00;0.00;;;16.50;99.90;;;;;;5087143;28;20004;-96
2021/06/07 00:04:16;;;;;;;0.00;0.00;;;16.50;99.90;;;;;;5086990;28;20026;-96
2021/06/07 00:06:45;;;;;;;0.00;0.00;;;16.50;99.90;;;;;;5086881;28;20012;-96
2021/06/07 00:09:13;;;;;;;0.00;0.00;;;16.50;99.90;;;;;;5086900;28;20033;-95
2021/06/07 00:11:47;;;;;;;0.00;0.00;;;16.50;99.90;;;;;;5087221;28;20006;-96
2021/06/07 00:14:15;;;;;;;0.00;0.00;;;16.40;99.90;;;;;;5086931;28;20099;-96
2021/06/07 00:16:44;;;;;;;0.00;0.00;;;16.40;99.90;;;;;;5086842;28;20032;-95
2021/06/07 00:19:12;;;;;;;0.00;0.00;;;16.40;99.90;;;;;;5086561;28;20043;-95
2021/06/07 00:21:38;;;;;;;0.00;0.00;;;16.30;99.90;;;;;;5086686;28;20000;-96
2021/06/07 00:24:05;;;;;;;0.00;0.00;;;16.40;99.90;;;;;;5086744;28;20068;-95
2021/06/07 00:26:31;;;;;;;0.00;0.00;;;16.30;99.90;;;;;;5086474;28;20079;-96
2021/06/07 00:29:00;;;;;;;0.00;0.00;;;16.30;99.90;;;;;;5087053;28;20030;-94
2021/06/07 00:31:26;;;;;;;0.00;0.00;;;16.30;99.90;;;;;;5086212;28;20004;-95
2021/06/07 00:33:52;;;;;;;0.00;0.00;;;16.30;99.90;;;;;;5086574;28;20095;-95
2021/06/07 00:36:22;;;;;;;0.00;0.00;;;16.40;99.90;;;;;;5086317;28;20019;-96
2021/06/07 00:38:49;;;;;;;0.00;0.00;;;16.30;99.90;;;;;;5086441;28;20004;-96
2021/06/07 00:41:16;;;;;;;0.00;0.00;;;16.30;99.90;;;;;;5086290;28;20008;-95
2021/06/07 00:43:42;;;;;;;0.00;0.00;;;16.40;99.90;;;;;;5086334;28;20000;-96
2021/06/07 00:46:08;;;;;;;0.00;0.00;;;16.30;99.90;;;;;;5086057;28;20008;-93
2021/06/07 00:48:34;;;;;;;0.00;0.00;;;16.40;99.90;;;;;;5086255;28;20023;-95
2021/06/07 00:51:07;;;;;;;0.00;0.00;;;16.20;99.90;;;;;;5085328;28;20000;-96
2021/06/07 00:53:33;;;;;;;0.00;0.00;;;16.30;99.90;;;;;;5086262;28;20104;-95
2021/06/07 00:56:04;;;;;;;0.00;0.00;;;16.30;99.90;;;;;;5085913;28;20027;-96
2021/06/07 00:58:50;;;;;;;0.00;0.00;;;16.30;99.90;;;;;;5086129;28;20015;-95
2021/06/07 01:01:26;;;;;;;0.00;0.00;;;16.20;99.90;;;;;;5085828;28;20076;-95
2021/06/07 01:03:55;;;;;;;0.00;0.00;;;16.30;99.90;;;;;;5086125;28;19996;-96
2021/06/07 01:06:21;;;;;;;0.00;0.00;;;16.40;99.90;;;;;;5102367;28;20035;-96
2021/06/07 01:08:48;;;;;;;0.00;0.00;;;16.30;99.90;;;;;;5085868;28;19996;-95
2021/06/07 01:11:15;;;;;;;0.00;0.00;;;16.20;99.90;;;;;;5085617;28;20019;-95
2021/06/07 01:13:44;;;;;;;0.00;0.00;;;16.20;99.90;;;;;;5085696;28;19996;-95
2021/06/07 01:16:10;;;;;;;0.00;0.00;;;16.10;99.90;;;;;;5085328;28;20098;-95
2021/06/07 01:18:38;;;;;;;0.00;0.00;;;16.10;99.90;;;;;;5085690;28;20004;-95
2021/06/07 01:21:07;;;;;;;0.00;0.00;;;16.00;99.90;;;;;;5085412;28;20008;-96
2021/06/07 01:23:35;;;;;;;0.00;0.00;;;16.20;99.90;;;;;;5085574;28;20011;-95
2021/06/07 01:26:05;;;;;;;0.00;0.00;;;16.20;99.90;;;;;;5085615;28;20020;-95
2021/06/07 01:28:37;;;;;;;0.00;0.00;;;16.20;99.90;;;;;;5085897;28;20013;-95
2021/06/07 01:31:04;;;;;;;0.00;0.00;;;16.30;99.90;;;;;;5085093;28;20004;-95
2021/06/07 01:33:31;;;;;;;0.00;0.00;;;16.30;99.90;;;;;;5085457;28;20083;-96
2021/06/07 01:35:59;;;;;;;0.00;0.00;;;16.40;99.90;;;;;;5085139;28;20255;-96
2021/06/07 01:38:28;;;;;;;0.00;0.00;;;16.40;99.90;;;;;;5085282;28;20010;-96
2021/06/07 01:40:57;;;;;;;0.00;0.00;;;16.40;99.90;;;;;;5085057;28;20023;-95
2021/06/07 01:43:23;;;;;;;0.00;0.00;;;16.50;99.90;;;;;;5085172;28;20003;-96
2021/06/07 01:45:51;;;;;;;0.00;0.00;;;16.50;99.90;;;;;;5085186;28;20008;-95
2021/06/07 01:48:20;;;;;;;0.00;0.00;;;16.50;99.90;;;;;;5085128;28;20030;-96
2021/06/07 01:50:47;;;;;;;5.18;1.75;;;16.50;99.90;;;;;;5084827;28;20012;-96
2021/06/07 01:53:17;;;;;;;0.00;0.00;;;16.50;99.90;;;;;;5085169;28;20000;-95
2021/06/07 01:55:48;;;;;;;0.00;0.00;;;16.40;99.90;;;;;;5085015;28;20004;-95
2021/06/07 01:58:17;;;;;;;0.10;0.10;;;16.40;99.90;;;;;;5085241;28;20004;-96
2021/06/07 02:01:05;;;;;;;0.00;0.00;;;16.30;99.90;;;;;;5084983;28;20008;-95
2021/06/07 02:03:31;;;;;;;0.00;0.00;;;16.30;99.90;;;;;;5085118;28;20034;-96
2021/06/07 02:05:59;;;;;;;0.00;0.00;;;16.40;99.90;;;;;;5084860;28;20035;-96
2021/06/07 02:08:29;;;;;;;0.00;0.00;;;16.30;99.90;;;;;;5085038;28;20000;-95
2021/06/07 02:11:11;;;;;;;0.00;0.00;;;16.10;99.90;;;;;;5084992;28;20007;-95
2021/06/07 02:13:39;;;;;;;0.00;0.00;;;16.10;99.90;;;;;;5085006;28;20001;-95
2021/06/07 02:16:08;;;;;;;0.00;0.00;;;16.10;99.90;;;;;;5084689;28;20019;-95
2021/06/07 02:18:37;;;;;;;0.00;0.00;;;16.10;99.90;;;;;;5085022;28;20008;-95
2021/06/07 02:21:07;;;;;;;0.00;0.00;;;16.00;99.90;;;;;;5084803;28;20008;-96
2021/06/07 02:23:37;;;;;;;0.00;0.00;;;16.00;99.90;;;;;;5084963;28;20013;-95
2021/06/07 02:26:04;;;;;;;0.00;0.00;;;16.10;99.90;;;;;;5084730;28;20016;-96
2021/06/07 02:28:30;;;;;;;0.00;0.00;;;16.00;99.90;;;;;;5084905;28;20008;-95
2021/06/07 02:30:56;;;;;;;0.00;0.00;;;16.00;99.90;;;;;;5084717;28;20031;-95
2021/06/07 02:33:22;;;;;;;0.00;0.00;;;16.00;99.90;;;;;;5084711;28;20087;-95
2021/06/07 02:35:48;;;;;;;0.00;0.00;;;16.10;99.90;;;;;;5084615;28;20000;-94
2021/06/07 02:38:26;;;;;;;0.00;0.00;;;16.10;99.90;;;;;;5084605;28;20004;-95
2021/06/07 02:40:53;;;;;;;0.00;0.00;;;16.10;99.90;;;;;;5084657;28;19996;-95
2021/06/07 02:43:19;;;;;;;0.00;0.00;;;16.10;99.90;;;;;;5084745;28;20019;-95
2021/06/07 02:45:45;;;;;;;0.00;0.00;;;16.00;99.90;;;;;;5084549;28;20290;-96
2021/06/07 02:48:18;;;;;;;0.00;0.00;;;16.00;99.90;;;;;;5084652;28;20019;-95
2021/06/07 02:50:47;;;;;;;0.00;0.00;;;16.00;99.90;;;;;;5084814;28;19999;-96
2021/06/07 02:53:15;;;;;;;0.00;0.00;;;16.10;99.90;;;;;;5085068;28;20000;-94
2021/06/07 02:55:48;;;;;;;0.00;0.00;;;16.10;99.90;;;;;;5084487;28;20023;-96
2021/06/07 02:58:14;;;;;;;0.00;0.00;;;16.10;99.90;;;;;;5084715;28;20016;-95
2021/06/07 03:00:47;;;;;;;0.00;0.00;;;16.20;99.90;;;;;;5084411;28;20004;-96
2021/06/07 03:03:13;;;;;;;0.00;0.00;;;16.20;99.90;;;;;;5084538;28;20020;-95
2021/06/07 03:05:40;;;;;;;0.00;0.00;;;16.30;99.90;;;;;;5084250;28;19996;-95
2021/06/07 03:08:08;;;;;;;0.00;0.00;;;16.20;99.90;;;;;;5084548;28;20004;-95
2021/06/07 03:10:35;;;;;;;0.10;0.10;;;16.30;99.90;;;;;;5084364;28;20003;-95
2021/06/07 03:13:01;;;;;;;0.00;0.00;;;16.30;99.90;;;;;;5084491;28;20022;-95
2021/06/07 03:15:28;;;;;;;0.00;0.00;;;16.10;99.90;;;;;;5087538;28;20000;-95
2021/06/07 03:17:55;;;;;;;0.00;0.00;;;16.00;99.90;;;;;;5088022;28;20080;-96
2021/06/07 03:20:25;;;;;;;0.00;0.00;;;16.00;99.90;;;;;;5087961;28;20068;-95
2021/06/07 03:22:53;;;;;;;0.00;0.00;;;16.00;99.90;;;;;;5087928;28;19996;-96
2021/06/07 03:25:19;;;;;;;0.00;0.00;;;16.00;99.90;;;;;;5087929;28;20004;-96
2021/06/07 03:27:45;;;;;;;1.10;0.80;;;16.00;99.90;;;;;;5087701;28;20019;-96
2021/06/07 03:30:11;;;;;;;0.43;0.43;;;16.10;99.90;;;;;;5087816;28;20096;-96
2021/06/07 03:32:46;;;;;;;0.00;0.00;;;16.20;99.90;;;;;;5087524;28;20008;-95
2021/06/07 03:35:17;;;;;;;0.00;0.00;;;16.10;99.90;;;;;;5087413;28;19996;-96
2021/06/07 03:37:46;;;;;;;0.00;0.00;;;16.20;99.90;;;;;;5086211;28;20008;-95
2021/06/07 03:40:23;;;;;;;0.00;0.00;;;16.20;99.90;;;;;;5087611;28;20024;-95
2021/06/07 03:43:02;;;;;;;0.00;0.00;;;16.00;99.90;;;;;;5088065;28;20071;-96
2021/06/07 03:45:30;;;;;;;0.00;0.00;;;16.10;99.90;;;;;;5086579;28;20019;-96
2021/06/07 03:47:59;;;;;;;0.00;0.00;;;16.00;99.90;;;;;;5087325;28;20024;-95
2021/06/07 03:50:33;;;;;;;0.00;0.00;;;15.90;99.90;;;;;;5087310;28;20011;-95
2021/06/07 03:52:59;;;;;;;0.00;0.00;;;15.80;99.90;;;;;;5086802;28;20031;-96
2021/06/07 03:55:28;;;;;;;0.00;0.00;;;15.70;99.90;;;;;;5085846;28;20080;-95
2021/06/07 03:58:18;;;;;;;0.03;0.03;;;15.70;99.90;;;;;;5085598;28;20044;-96
2021/06/07 04:00:44;;;;;;;0.00;0.00;;;15.60;99.90;;;;;;5085571;28;20020;-95
2021/06/07 04:03:13;;;;;;;0.00;0.00;;;15.60;99.90;;;;;;5085725;28;20012;-96
2021/06/07 04:05:39;;;;;;;0.10;0.10;;;15.70;99.90;;;;;;5085369;28;20038;-96
2021/06/07 04:08:08;;;;;;;1.95;0.65;;;15.70;99.90;;;;;;5085639;28;20016;-96
2021/06/07 04:10:34;;;;;;;0.00;0.00;;;15.70;99.90;;;;;;5085495;28;20088;-96
2021/06/07 04:13:00;;;;;;;0.00;0.00;;;15.70;99.90;;;;;;5085641;28;20092;-96
2021/06/07 04:15:30;;;;;;;0.00;0.00;;;15.70;99.90;;;;;;5085152;28;20019;-95
2021/06/07 04:17:57;;;;;;;0.00;0.00;;;15.80;99.90;;;;;;5085416;28;20016;-96
2021/06/07 04:20:25;;;;;;;0.00;0.00;;;15.80;99.90;;;;;;5085497;28;20389;-96
2021/06/07 04:22:52;;;;;;;0.10;0.10;;;15.80;99.90;;;;;;5085303;28;20023;-95
2021/06/07 04:25:20;;;;;;;0.00;0.00;;;15.70;99.90;;;;;;5085202;28;20012;-95
2021/06/07 04:27:48;;;;;;;0.00;0.00;;;15.60;99.90;;;;;;5085133;28;20032;-96
2021/06/07 04:30:19;;;;;;;0.08;0.08;;;15.70;99.90;;;;;;5085040;28;20055;-95
2021/06/07 04:32:46;;;;;;;0.00;0.00;;;15.70;99.90;;;;;;5085007;28;20255;-94
2021/06/07 04:35:14;;;;;;;0.00;0.00;;;15.70;99.90;;;;;;5085153;28;20008;-96
2021/06/07 04:37:49;;;;;;;0.00;0.00;;;15.70;99.90;;;;;;5084789;28;20042;-95
2021/06/07 04:40:20;;;;;;;0.00;0.00;;;15.80;99.90;;;;;;5084896;28;20012;-95
2021/06/07 04:42:46;;;;;;;0.00;0.00;;;15.90;99.90;;;;;;5084853;28;20019;-96
2021/06/07 04:45:13;;;;;;;0.00;0.00;;;15.90;99.90;;;;;;5085000;28;20032;-96
2021/06/07 04:47:47;;;;;;;0.00;0.00;;;16.00;99.90;;;;;;5084497;28;20023;-96
2021/06/07 04:50:17;;;;;;;0.00;0.00;;;16.00;99.90;;;;;;5084944;28;20012;-95
2021/06/07 04:53:00;;;;;;;0.00;0.00;;;16.00;99.90;;;;;;5083037;28;20016;-95
2021/06/07 04:55:35;;;;;;;0.00;0.00;;;15.90;99.90;;;;;;5078705;28;20020;-94
2021/06/07 04:58:10;;;;;;;0.00;0.00;;;16.00;99.90;;;;;;5083575;28;20036;-94
2021/06/07 05:01:15;;;;;;;0.00;0.00;;;16.10;99.90;;;;;;5084434;28;20008;-96
2021/06/07 05:03:44;;;;;;;0.00;0.00;;;16.20;99.90;;;;;;5083429;28;20032;-95
2021/06/07 05:06:10;;;;;;;0.00;0.00;;;16.30;99.90;;;;;;5084388;28;20051;-96
2021/06/07 05:08:38;;;;;;;0.00;0.00;;;16.30;99.90;;;;;;5084239;28;20008;-95
2021/06/07 05:11:07;;;;;;;0.00;0.00;;;16.40;99.90;;;;;;5084067;28;20028;-96
2021/06/07 05:13:32;;;;;;;0.00;0.00;;;16.40;99.90;;;;;;5081821;28;20008;-95
2021/06/07 05:15:58;;;;;;;0.00;0.00;;;16.40;99.90;;;;;;5078009;28;20058;-95
2021/06/07 05:18:27;;;;;;;0.00;0.00;;;16.30;99.90;;;;;;5061257;23;20057;-73
2021/06/07 05:20:53;;;;;;;0.00;0.00;;;16.40;99.90;;;;;;5071537;28;20017;-71
2021/06/07 05:23:19;;;;;;;0.00;0.00;;;16.30;99.90;;;;;;5064066;28;20371;-73
2021/06/07 05:25:45;;;;;;;0.00;0.00;;;16.20;99.90;;;;;;5071137;28;20091;-73
2021/06/07 05:28:12;;;;;;;0.00;0.00;;;16.30;99.90;;;;;;5047598;28;20480;-73
2021/06/07 05:30:40;;;;;;;0.00;0.00;;;16.40;99.90;;;;;;5059298;28;20110;-72
2021/06/07 05:33:07;;;;;;;0.00;0.00;;;16.50;99.90;;;;;;5070578;28;20476;-73
2021/06/07 05:35:37;;;;;;;0.00;0.00;;;16.70;99.90;;;;;;5070842;28;20032;-73
2021/06/07 05:38:04;;;;;;;0.00;0.00;;;16.60;99.90;;;;;;5069153;28;20081;-73
2021/06/07 05:40:31;;;;;;;0.00;0.00;;;16.60;99.90;;;;;;5066415;22;20466;-75
2021/06/07 05:42:57;;;;;;;0.00;0.00;;;16.60;99.90;;;;;;5058094;28;20016;-75
2021/06/07 05:45:23;;;;;;;0.00;0.00;;;16.60;99.90;;;;;;5038154;28;20082;-75
2021/06/07 05:47:50;;;;;;;0.00;0.00;;;16.70;99.90;;;;;;5025820;28;20087;-75
2021/06/07 05:50:19;;;;;;;0.00;0.00;;;16.80;99.90;;;;;;5034253;28;20031;-75
2021/06/07 05:52:46;;;;;;;0.00;0.00;;;16.80;99.90;;;;;;5066011;28;20025;-75
2021/06/07 05:55:24;;;;;;;0.00;0.00;;;16.90;99.90;;;;;;5027241;28;20049;-75
2021/06/07 05:57:53;;;;;;;0.00;0.00;;;17.00;99.90;;;;;;5061552;28;20020;-75
2021/06/07 06:00:23;;;;;;;0.00;0.00;;;17.00;99.90;;;;;;5040021;28;20024;-76
2021/06/07 06:02:49;;;;;;;0.13;0.13;;;17.10;99.90;;;;;;5066652;28;20536;-75
2021/06/07 06:05:15;;;;;;;0.00;0.00;;;17.10;99.90;;;;;;5037481;28;20029;-75
2021/06/07 06:07:42;;;;;;;0.00;0.00;;;17.00;99.90;;;;;;5042560;28;20032;-75
2021/06/07 06:10:09;;;;;;;0.00;0.00;;;17.10;99.90;;;;;;5043822;28;20089;-75
2021/06/07 06:12:35;;;;;;;0.00;0.00;;;17.00;99.90;;;;;;5050736;28;20071;-75
2021/06/07 06:15:00;;;;;;;0.00;0.00;;;17.20;99.90;;;;;;5036057;28;20445;-76
2021/06/07 06:17:26;;;;;;;0.00;0.00;;;17.20;99.90;;;;;;5059345;28;20384;-76
2021/06/07 06:19:52;;;;;;;0.00;0.00;;;17.30;99.90;;;;;;5054575;28;20488;-76
2021/06/07 06:22:18;;;;;;;0.00;0.00;;;17.40;99.90;;;;;;5047412;28;20029;-76
2021/06/07 06:24:45;;;;;;;0.00;0.00;;;17.30;99.90;;;;;;5055917;28;20028;-76
2021/06/07 06:27:12;;;;;;;0.10;0.10;;;17.30;99.90;;;;;;5062893;28;20016;-76
2021/06/07 06:29:39;;;;;;;3.00;2.72;;;17.40;99.90;;;;;;5054039;28;20158;-76
2021/06/07 06:32:06;;;;;;;0.00;0.00;;;17.30;99.90;;;;;;5057704;28;20049;-76
2021/06/07 06:34:32;;;;;;;0.00;0.00;;;17.40;99.90;;;;;;5050694;28;20032;-77
2021/06/07 06:36:58;;;;;;;0.00;0.00;;;17.50;99.90;;;;;;5042228;28;20488;-76
2021/06/07 06:39:23;;;;;;;0.00;0.00;;;17.70;99.90;;;;;;5035626;28;20433;-76
2021/06/07 06:41:49;;;;;;;0.10;0.10;;;17.80;99.90;;;;;;5036075;28;20100;-77
2021/06/07 06:44:15;;;;;;;0.10;0.10;;;17.90;99.90;;;;;;5017065;28;20025;-75
2021/06/07 06:46:40;;;;;;;0.00;0.00;;;18.00;99.90;;;;;;5054891;28;20481;-76
2021/06/07 06:49:06;;;;;;;0.80;0.10;;;18.00;99.90;;;;;;5043780;28;20425;-76
2021/06/07 06:51:32;;;;;;;1.02;0.38;;;18.00;99.90;;;;;;5055010;28;20025;-75
2021/06/07 06:53:58;;;;;;;0.00;0.00;;;17.90;99.90;;;;;;5072961;28;20025;-76
2021/06/07 06:56:24;;;;;;;0.30;0.30;;;17.90;99.90;;;;;;5026099;28;20029;-76
2021/06/07 06:58:50;;;;;;;0.00;0.00;;;17.90;99.90;;;;;;5055390;28;20043;-73
2021/06/07 07:01:16;;;;;;;0.55;0.30;;;18.00;99.90;;;;;;5056420;28;20432;-72
2021/06/07 07:03:43;;;;;;;0.00;0.00;;;18.10;99.90;;;;;;5067785;28;20031;-74
2021/06/07 07:06:09;;;;;;;0.55;0.35;;;18.00;99.90;;;;;;5066837;28;20025;-73
2021/06/07 07:08:35;;;;;;;0.00;0.00;;;18.10;99.90;;;;;;5040930;28;20029;-73
2021/06/07 07:11:01;;;;;;;0.00;0.00;;;18.50;99.90;;;;;;5062196;28;20147;-74
2021/06/07 07:13:27;;;;;;;0.30;0.30;;;18.70;99.90;;;;;;5046611;28;20178;-74
2021/06/07 07:15:53;;;;;;;0.00;0.00;;;18.70;99.90;;;;;;5067043;28;20095;-73
2021/06/07 07:18:18;;;;;;;0.10;0.10;;;18.70;99.90;;;;;;5055628;28;20028;-73
2021/06/07 07:20:44;;;;;;;0.00;0.00;;;18.80;99.90;;;;;;5066023;28;20384;-74
2021/06/07 07:23:11;;;;;;;1.55;0.28;;;18.60;99.90;;;;;;5051148;28;20021;-74
2021/06/07 07:25:38;;;;;;;0.00;0.00;;;18.40;99.90;;;;;;5061887;28;20102;-74
2021/06/07 07:28:06;;;;;;;0.00;0.00;;;18.50;99.90;;;;;;5040881;28;20040;-74
2021/06/07 07:30:32;;;;;;;0.40;0.40;;;18.60;99.90;;;;;;5043931;28;20099;-74
2021/06/07 07:32:58;;;;;;;0.00;0.00;;;18.70;99.90;;;;;;5059558;28;20031;-73
2021/06/07 07:35:25;;;;;;;0.00;0.00;;;18.70;99.90;;;;;;5055834;28;20361;-74
2021/06/07 07:37:52;;;;;;;0.00;0.00;;;18.80;99.90;;;;;;5060075;28;20025;-74
2021/06/07 07:40:20;;;;;;;0.00;0.00;;;19.10;99.90;;;;;;5066030;28;20508;-74
2021/06/07 07:42:47;;;;;;;0.10;0.10;;;19.10;99.90;;;;;;5061925;28;20037;-74
2021/06/07 07:45:16;;;;;;;0.20;0.20;;;19.10;99.90;;;;;;5067019;28;20028;-74
2021/06/07 07:47:41;;;;;;;0.10;0.10;;;19.30;99.90;;;;;;5053450;28;20033;-74
2021/06/07 07:50:12;;;;;;;0.05;0.05;;;19.40;99.90;;;;;;5058120;28;20484;-74
2021/06/07 07:52:42;;;;;;;0.00;0.00;;;19.40;99.90;;;;;;5057972;28;20373;-74
2021/06/07 07:55:10;;;;;;;0.10;0.10;;;19.60;99.90;;;;;;5067352;28;20561;-74
2021/06/07 07:57:37;;;;;;;0.13;0.13;;;20.10;99.90;;;;;;5045205;28;20434;-74
2021/06/07 08:00:06;;;;;;;0.03;0.03;;;20.10;99.90;;;;;;5069237;28;20087;-75
2021/06/07 08:02:31;;;;;;;0.28;0.28;;;20.00;99.90;;;;;;5065614;28;20035;-74
2021/06/07 08:04:57;;;;;;;0.00;0.00;;;19.90;99.90;;;;;;5051648;28;20037;-74
2021/06/07 08:07:23;;;;;;;0.00;0.00;;;19.80;99.90;;;;;;5053313;28;20108;-74
2021/06/07 08:09:49;;;;;;;0.10;0.10;;;19.80;99.90;;;;;;5061028;28;20091;-75
2021/06/07 08:12:16;;;;;;;0.00;0.00;;;19.90;99.90;;;;;;5058043;28;20028;-74
2021/06/07 08:14:42;;;;;;;0.00;0.00;;;19.70;99.90;;;;;;5062649;28;20063;-75
2021/06/07 08:17:07;;;;;;;0.00;0.00;;;19.60;99.90;;;;;;5046735;28;20191;-75
2021/06/07 08:19:34;;;;;;;0.10;0.10;;;19.60;99.90;;;;;;5042033;28;20481;-75
2021/06/07 08:21:59;;;;;;;0.05;0.05;;;19.60;99.90;;;;;;5061774;28;20029;-75
2021/06/07 08:24:25;;;;;;;0.00;0.00;;;19.50;99.90;;;;;;5058106;28;20032;-75
2021/06/07 08:26:51;;;;;;;0.30;0.30;;;19.40;99.90;;;;;;5047256;28;20051;-74
2021/06/07 08:29:17;;;;;;;0.00;0.00;;;19.30;99.90;;;;;;5029949;28;20280;-74
2021/06/07 08:31:42;;;;;;;0.73;0.68;;;19.20;99.90;;;;;;5065011;28;20025;-74
2021/06/07 08:34:08;;;;;;;0.32;0.30;;;19.00;99.90;;;;;;5065711;28;20056;-74
2021/06/07 08:36:34;;;;;;;0.00;0.00;;;18.70;99.90;;;;;;5059052;28;20398;-75
2021/06/07 08:39:00;;;;;;;0.10;0.10;;;18.70;99.90;;;;;;5071384;28;20051;-75
2021/06/07 08:41:26;;;;;;;0.00;0.00;;;18.80;99.90;;;;;;5048435;28;20078;-75
2021/06/07 08:43:52;;;;;;;0.00;0.00;;;18.90;99.90;;;;;;5063510;28;20542;-74
2021/06/07 08:46:18;;;;;;;0.45;0.45;;;19.00;99.90;;;;;;5042008;28;20029;-75
2021/06/07 08:48:43;;;;;;;0.22;0.22;;;19.10;99.90;;;;;;5025938;28;20037;-76
2021/06/07 08:51:10;;;;;;;0.00;0.00;;;19.00;99.90;;;;;;5049995;28;20491;-75
2021/06/07 08:53:37;;;;;;;0.00;0.00;;;19.20;99.90;;;;;;5062436;28;20073;-75
2021/06/07 08:56:03;;;;;;;0.00;0.00;;;19.20;99.90;;;;;;5052244;28;20381;-75
2021/06/07 08:58:29;;;;;;;0.10;0.10;;;19.40;99.90;;;;;;5056500;28;20476;-75
2021/06/07 09:00:55;;;;;;;1.98;1.42;;;19.50;99.90;;;;;;5059021;28;20158;-75
2021/06/07 09:03:22;;;;;;;0.03;0.03;;;19.80;99.90;;;;;;5067417;28;20013;-76
2021/06/07 09:05:56;;;;;;;0.00;0.00;;;19.90;99.90;;;;;;5044391;28;20343;-76
2021/06/07 09:08:28;;;;;;;0.10;0.10;;;20.00;99.90;;;;;;5034992;28;20106;-76
2021/06/07 09:10:54;;;;;;;0.10;0.10;;;20.00;99.90;;;;;;5059950;28;20039;-76
2021/06/07 09:13:22;;;;;;;0.15;0.15;;;20.20;99.90;;;;;;5040514;28;20029;-75
2021/06/07 09:15:53;;;;;;;0.70;0.32;;;20.10;99.90;;;;;;5047603;28;20023;-75
2021/06/07 09:18:33;;;;;;;1.83;0.52;;;20.20;99.90;;;;;;5058394;28;20054;-74
2021/06/07 09:21:00;;;;;;;0.20;0.20;;;20.40;99.90;;;;;;5038351;28;20489;-75
2021/06/07 09:23:44;;;;;;;0.10;0.10;;;20.40;99.90;;;;;;5057947;28;20063;-75
2021/06/07 09:26:36;;;;;;;0.00;0.00;;;20.40;99.90;;;;;;5045116;28;20021;-75
2021/06/07 09:29:03;;;;;;;0.28;0.28;;;20.70;99.90;;;;;;5054048;28;20013;-75
2021/06/07 09:31:38;;;;;;;0.20;0.20;;;20.70;96.40;;;;;;5036131;28;20059;-76
2021/06/07 09:34:17;;;;;;;0.00;0.00;;;20.90;95.70;;;;;;5015541;28;20013;-75
2021/06/07 09:36:48;;;;;;;;;;;21.20;95.60;;;;;;5019442;28;20211;-75
2021/06/07 09:39:18;;;;;;;0.10;0.10;;;21.50;95.90;;;;;;5047334;28;19912;-75
2021/06/07 09:42:18;;;;;;;0.00;0.00;;;21.20;93.70;;;;;;5060431;28;20097;-75
2021/06/07 09:44:48;;;;;;;0.03;0.03;;;21.20;95.00;;;;;;5061684;28;20049;-75
2021/06/07 09:47:24;;;;;;;0.20;0.20;;;21.40;93.50;;;;;;5062937;28;20068;-75
2021/06/07 09:49:52;;;;;;;0.22;0.22;;;21.30;92.50;;;;;;5038365;28;20024;-75
2021/06/07 09:52:22;;;;;;;0.10;0.10;;;21.70;94.10;;;;;;5042090;28;20029;-76
2021/06/07 09:55:12;;;;;;;0.20;0.17;;;21.70;91.50;;;;;;5064610;28;20019;-76
2021/06/07 09:57:56;;;;;;;0.30;0.25;;;22.30;88.60;;;;;;5038366;28;20051;-76
2021/06/07 10:00:47;;;;;;;0.30;0.30;;;22.50;82.10;;;;;;5056080;28;20025;-76
2021/06/07 10:03:27;;;;;;;0.47;0.47;;;22.90;83.80;;;;;;5050360;28;20472;-76
2021/06/07 10:06:26;;;;;;;0.10;0.10;;;23.10;80.70;;;;;;5061375;28;20271;-76
2021/06/07 10:08:59;;;;;;;0.00;0.00;;;22.80;80.60;;;;;;5030572;28;20035;-76
2021/06/07 10:11:33;;;;;;;7.88;4.07;;;22.70;80.90;;;;;;5028519;28;20090;-76
2021/06/07 10:14:05;;;;;;;0.10;0.10;;;22.50;82.00;;;;;;5047506;28;20036;-76
2021/06/07 10:16:32;;;;;;;0.00;0.00;;;22.20;81.70;;;;;;5057434;28;20434;-75
2021/06/07 10:19:03;;;;;;;0.10;0.10;;;22.10;81.90;;;;;;5065658;28;20032;-75
2021/06/07 10:21:29;;;;;;;0.08;0.08;;;22.00;82.20;;;;;;5065723;28;20121;-74
2021/06/07 10:23:55;;;;;;;0.05;0.05;;;21.90;84.60;;;;;;5056191;28;20033;-75
2021/06/07 10:26:21;;;;;;;0.08;0.08;;;22.00;83.50;;;;;;5066121;28;20032;-75
2021/06/07 10:28:53;;;;;;;3.70;1.48;;;22.20;82.60;;;;;;5048677;28;20025;-75
2021/06/07 10:31:25;;;;;;;0.05;0.05;;;22.40;82.80;;;;;;5048693;28;20388;-75
2021/06/07 10:34:08;;;;;;;0.30;0.30;;;22.80;82.30;;;;;;5057370;28;20035;-76
2021/06/07 10:36:38;;;;;;;0.00;0.00;;;22.70;80.90;;;;;;5060336;28;20028;-76
2021/06/07 10:39:20;;;;;;;0.00;0.00;;;22.20;80.80;;;;;;5067301;28;20032;-76
2021/06/07 10:42:11;;;;;;;0.30;0.30;;;22.00;82.10;;;;;;5041633;28;20044;-76
2021/06/07 10:44:43;;;;;;;0.10;0.10;;;21.90;81.90;;;;;;5050675;28;20162;-76
2021/06/07 10:47:44;;;;;;;0.10;0.10;;;21.80;83.50;;;;;;5054411;28;20021;-76
2021/06/07 10:50:13;;;;;;;0.30;0.30;;;22.00;84.50;;;;;;5055275;28;20087;-76
2021/06/07 10:52:56;;;;;;;0.30;0.30;;;22.50;79.70;;;;;;5031062;28;20023;-76
2021/06/07 10:55:31;;;;;;;0.10;0.10;;;22.40;80.50;;;;;;5062463;28;20017;-76
2021/06/07 10:58:24;;;;;;;0.13;0.13;;;22.50;79.90;;;;;;5047144;28;20021;-76
2021/06/07 11:00:56;;;;;;;0.32;0.32;;;22.90;77.90;;;;;;5044835;28;20028;-76
2021/06/07 11:03:25;;;;;;;0.10;0.10;;;23.40;76.20;;;;;;5061174;28;20025;-76
2021/06/07 11:05:54;;;;;;;0.00;0.00;;;23.60;75.40;;;;;;5064174;28;20093;-76
2021/06/07 11:08:25;;;;;;;0.00;0.00;;;24.10;73.60;;;;;;5043132;28;20025;-76
2021/06/07 11:11:17;;;;;;;0.00;0.00;;;24.10;73.40;;;;;;5064074;28;20341;-76
2021/06/07 11:14:00;;;;;;;0.68;0.40;;;24.00;72.70;;;;;;5049633;28;20190;-76
2021/06/07 11:16:25;;;;;;;0.10;0.10;;;23.80;72.10;;;;;;5045507;28;20411;-76
2021/06/07 11:18:59;;;;;;;0.10;0.10;;;24.10;72.50;;;;;;5057872;28;20027;-76
2021/06/07 11:21:29;;;;;;;0.00;0.00;;;24.30;67.80;;;;;;5029765;28;20566;-76
2021/06/07 11:23:55;;;;;;;0.20;0.20;;;24.00;71.20;;;;;;5058471;28;20076;-76
2021/06/07 11:26:37;;;;;;;0.00;0.00;;;24.40;69.80;;;;;;5046216;28;20039;-76
2021/06/07 11:29:02;;;;;;;0.00;0.00;;;24.90;68.20;;;;;;5054274;28;20072;-76
2021/06/07 11:31:34;;;;;;;0.08;0.08;;;24.90;66.20;;;;;;5045305;28;20370;-75
2021/06/07 11:34:00;;;;;;;;;;;24.70;67.10;;;;;;5061433;28;20024;-76
2021/06/07 11:37:00;;;;;;;0.00;0.00;;;24.90;66.60;;;;;;5065802;28;19940;-76
2021/06/07 11:39:36;;;;;;;0.00;0.00;;;25.10;65.90;;;;;;5066697;22;20070;-93
2021/06/07 11:42:08;;;;;;;0.00;0.00;;;24.70;66.30;;;;;;5077619;28;20024;-93
2021/06/07 11:44:58;;;;;;;0.00;0.00;;;24.50;67.10;;;;;;5060360;28;20119;-93
2021/06/07 11:47:49;;;;;;;0.40;0.40;;;24.30;68.10;;;;;;5074997;28;20115;-92
2021/06/07 11:50:32;;;;;;;0.00;0.00;;;24.20;68.90;;;;;;5074053;28;20028;-93
2021/06/07 11:53:23;;;;;;;0.00;0.00;;;24.00;69.90;;;;;;5051188;28;20039;-93
2021/06/07 11:55:55;;;;;;;0.00;0.00;;;24.10;69.00;;;;;;5047421;28;20023;-90
2021/06/07 11:58:22;;;;;;;0.00;0.00;;;24.20;68.20;;;;;;5055377;28;20031;-92
2021/06/07 12:01:01;;;;;;;0.35;0.35;;;24.00;69.80;;;;;;5051723;28;20024;-92
2021/06/07 12:03:35;;;;;;;0.00;0.00;;;23.90;70.00;;;;;;5059494;28;20042;-93
2021/06/07 12:06:10;;;;;;;0.30;0.30;;;23.70;68.80;;;;;;5056397;28;20028;-93
2021/06/07 12:08:51;;;;;;;0.00;0.00;;;23.70;69.10;;;;;;5052152;28;20025;-92
2021/06/07 12:11:30;;;;;;;0.00;0.00;;;23.60;68.00;;;;;;5036574;28;20022;-92
2021/06/07 12:14:04;;;;;;;0.00;0.00;;;23.60;68.80;;;;;;5053582;28;20019;-92
2021/06/07 12:17:16;;;;;;;0.25;0.20;;;23.80;67.10;;;;;;5063450;28;20036;-92
2021/06/07 12:19:43;;;;;;;0.03;0.03;;;23.90;67.40;;;;;;5050261;28;20112;-92
2021/06/07 12:22:38;;;;;;;0.32;0.32;;;23.60;67.40;;;;;;5062751;28;20164;-93
2021/06/07 12:25:42;;;;;;;0.00;0.00;;;23.70;70.00;;;;;;5058150;28;20029;-93
2021/06/07 12:28:21;;;;;;;0.13;0.13;;;23.60;68.80;;;;;;5050025;28;20037;-92
2021/06/07 12:30:57;;;;;;;0.45;0.40;;;23.70;68.30;;;;;;5053270;28;20414;-92
2021/06/07 12:34:04;;;;;;;0.00;0.00;;;23.40;74.70;;;;;;5063178;28;20025;-92
2021/06/07 12:36:39;;;;;;;0.30;0.30;;;23.30;76.60;;;;;;5046748;28;20055;-93
2021/06/07 12:39:19;;;;;;;0.10;0.10;;;23.60;76.20;;;;;;5068586;28;20493;-92
2021/06/07 12:41:48;;;;;;;0.68;0.45;;;23.60;75.50;;;;;;5052950;28;20596;-92
2021/06/07 12:44:25;;;;;;;0.10;0.10;;;23.50;76.50;;;;;;5047950;28;20028;-92
2021/06/07 12:47:07;;;;;;;0.00;0.00;;;23.40;75.70;;;;;;5044200;28;20042;-92
2021/06/07 12:49:39;;;;;;;0.20;0.20;;;23.30;75.10;;;;;;5052419;28;20016;-92
2021/06/07 12:52:08;;;;;;;0.10;0.10;;;23.30;75.20;;;;;;5046880;28;20040;-93
2021/06/07 12:54:35;;;;;;;0.20;0.20;;;23.30;75.50;;;;;;5047856;28;20025;-92
2021/06/07 12:57:12;;;;;;;0.00;0.00;;;23.30;76.10;;;;;;5044469;28;20104;-93
2021/06/07 12:59:44;;;;;;;0.20;0.20;;;23.30;77.60;;;;;;5043758;28;20068;-92
2021/06/07 13:02:35;;;;;;;0.20;0.20;;;23.20;76.00;;;;;;5046509;28;20040;-92
2021/06/07 13:05:32;;;;;;;0.05;0.05;;;23.00;75.80;;;;;;5055168;28;20031;-92
2021/06/07 13:08:29;;;;;;;0.03;0.03;;;23.00;76.40;;;;;;5052437;28;20048;-92